Tanana, AK

9:32 PM AKDT on July 23, 2017 (GMT -0800)
Calhoun Memorial | | Change Station

Elev 226 ft 65.17 °N, 152.11 °W | Updated 40 minutes ago

Rain
Rain
62 °F
Feels Like 62 °F
N
0
Wind Variable Wind from North

Today
High -- | Low -- °F
--% Chance of Precip.
Yesterday
High -- | Low -- °F
Precip. -- in
Pressure 29.85 in
Visibility 6.0 miles
Clouds Few 7500 ft
Overcast 9500 ft
Dew Point 61 °F
Humidity 96%
Rainfall 0.03 in
Snow Depth Not available.
4:33 AM 11:53 PM
New Moon, 1% visible
METAR PATA 240452Z 00000KT 6SM -RA BR FEW075 OVC095 17/16 A2985 RMK AO2 SLP108 FU ALQADS P0001 T01670161 $
Pressure 29.85 in
Visibility 6.0 miles
Clouds Few 7500 ft
Overcast 9500 ft
Dew Point 61 °F
Humidity 96%
Rainfall 0.03 in
Snow Depth Not available.
4:33 AM 11:53 PM
New Moon, 1% visible
METAR PATA 240452Z 00000KT 6SM -RA BR FEW075 OVC095 17/16 A2985 RMK AO2 SLP108 FU ALQADS P0001 T01670161 $

Get Severe Weather Alerts

Thanks for signing up!

Be on the lookout for a verification email in your inbox.

You'll start receiving the daily forecast at 6 AM.

×

10-Day Weather Forecast

Almanac

Astronomy

Jul. 23, 2017 Rise Set
Actual Time
Civil Twilight
Nautical Twilight
Astronomical Twilight
Moon
Length of Visible Light
Length of Day
Tomorrow will be .
, % of the Moon is Illuminated

Today's Extremes

State Highs State Lows

Community

WunderPhotos

Category 6

Welcome to Category 6. This is the collective home for Weather Underground's featured writeups by Dr. Jeff Masters (right), Bob Henson (left), Chris Burt, and other regular contributors.

Nearby

Air Quality

  Air Quality AQ Index Pollutant
Not available.

Snow Depth

Station Depth Elevation

Earthquake Activity

City Distance Mag. Time & Date
Minimum magnitude displayed is 2.5.

Coastal Water Temperatures

Place Temperature

Stations

Nearby Weather Stations

Station Location Temp. Windchill Dew Point Humidity Wind Precip. Elev Updated Type
                   

Watches & Warnings

There are currently no watches in effect.